Time;durP1;ratioP1;P1;durP2;ratioP2;P2;SDS_P1;SDS_P2;PMS_P1;PMS_P2;Temp;Humidity;BMP_temperature;BMP_pressure;BME280_temperature;BME280_humidity;BME280_pressure;Samples;Min_cycle;Max_cycle;Signal;HPM_P1;HPM_P2
2023/09/17 00:02:01;;;;;;;14.75;8.55;;;19.80;69.30;;;;;;9167788;19;20018;-67
2023/09/17 00:05:09;;;;;;;15.88;9.07;;;19.70;69.80;;;;;;9167157;19;20019;-68
2023/09/17 00:08:18;;;;;;;13.60;8.63;;;19.70;70.20;;;;;;9169508;19;20022;-67
2023/09/17 00:11:25;;;;;;;16.70;8.88;;;19.70;75.50;;;;;;9169103;19;20376;-68
2023/09/17 00:14:30;;;;;;;14.57;8.57;;;19.70;71.10;;;;;;9164213;19;20014;-68
2023/09/17 00:17:39;;;;;;;15.63;8.55;;;19.70;69.30;;;;;;9168729;19;20010;-67
2023/09/17 00:20:44;;;;;;;14.38;8.38;;;19.70;69.10;;;;;;9169356;19;20754;-68
2023/09/17 00:23:54;;;;;;;15.23;8.05;;;19.60;72.90;;;;;;9166750;19;20018;-68
2023/09/17 00:27:00;;;;;;;13.70;8.80;;;19.60;75.50;;;;;;9164094;19;20284;-67
2023/09/17 00:30:11;;;;;;;14.23;8.93;;;19.60;73.70;;;;;;9168721;19;20018;-67
2023/09/17 00:33:17;;;;;;;14.73;8.95;;;19.50;71.70;;;;;;9167176;19;20111;-65
2023/09/17 00:36:26;;;;;;;13.70;8.85;;;19.60;73.10;;;;;;9169007;19;20023;-68
2023/09/17 00:39:34;;;;;;;15.80;9.27;;;19.60;74.80;;;;;;9168648;19;20015;-67
2023/09/17 00:42:43;;;;;;;16.27;9.20;;;19.50;71.70;;;;;;9166759;19;20022;-68
2023/09/17 00:45:48;;;;;;;19.27;10.45;;;19.40;70.30;;;;;;9164803;19;20371;-67
2023/09/17 00:48:56;;;;;;;20.95;10.43;;;19.50;67.70;;;;;;9165730;19;20021;-67
2023/09/17 00:52:03;;;;;;;19.02;11.60;;;19.40;66.80;;;;;;9166759;19;20405;-65
2023/09/17 00:55:13;;;;;;;18.33;11.98;;;19.40;67.10;;;;;;9168208;19;20029;-68
2023/09/17 00:58:20;;;;;;;17.80;11.25;;;19.40;67.00;;;;;;9165035;19;20480;-64
2023/09/17 01:01:34;;;;;;;14.63;10.93;;;19.40;67.40;;;;;;9168340;19;20539;-67
2023/09/17 01:04:41;;;;;;;19.55;11.32;;;19.30;67.30;;;;;;9166403;19;20017;-64
2023/09/17 01:07:57;;;;;;;17.42;11.50;;;19.30;67.40;;;;;;9163240;19;20448;-65
2023/09/17 01:11:07;;;;;;;17.40;11.93;;;19.30;67.60;;;;;;9164001;19;20034;-66
2023/09/17 01:14:15;;;;;;;22.60;12.82;;;19.30;68.20;;;;;;9165668;19;20019;-68
2023/09/17 01:17:22;;;;;;;17.67;11.95;;;19.30;67.90;;;;;;9158806;19;20038;-66
2023/09/17 01:20:33;;;;;;;20.20;11.77;;;19.20;67.50;;;;;;9159806;19;20089;-67
2023/09/17 01:23:46;;;;;;;23.73;13.45;;;19.20;68.20;;;;;;9161117;19;20018;-66
2023/09/17 01:27:14;;;;;;;18.70;11.63;;;19.20;68.30;;;;;;9159994;19;20111;-67
2023/09/17 01:30:21;;;;;;;27.20;12.07;;;19.20;69.20;;;;;;9162799;19;20348;-66
2023/09/17 01:33:29;;;;;;;20.20;11.55;;;19.20;69.40;;;;;;9161069;19;20480;-67
2023/09/17 01:36:35;;;;;;;15.60;11.18;;;19.10;70.10;;;;;;9163095;19;20013;-67
2023/09/17 01:39:48;;;;;;;22.45;11.52;;;19.20;71.00;;;;;;9166039;19;20014;-67
2023/09/17 01:42:57;;;;;;;17.98;12.55;;;19.30;70.70;;;;;;9164845;19;20015;-69
2023/09/17 01:46:05;;;;;;;26.17;13.30;;;19.10;71.60;;;;;;9162612;19;20039;-65
2023/09/17 01:49:12;;;;;;;17.77;11.95;;;19.10;71.70;;;;;;9163429;19;20029;-65
2023/09/17 01:52:25;;;;;;;18.50;12.27;;;19.10;72.40;;;;;;9164481;19;20024;-67
2023/09/17 01:55:30;;;;;;;18.52;12.77;;;19.10;72.10;;;;;;9163646;19;20062;-68
2023/09/17 01:58:40;;;;;;;17.70;11.93;;;19.10;72.80;;;;;;9161527;19;20021;-65
2023/09/17 02:01:46;;;;;;;19.63;12.18;;;19.10;72.90;;;;;;9162803;19;20019;-69
2023/09/17 02:04:54;;;;;;;20.63;13.30;;;19.20;73.40;;;;;;9163943;19;20374;-69
2023/09/17 02:07:59;;;;;;;24.90;13.00;;;19.20;74.10;;;;;;9162053;19;20338;-70
2023/09/17 02:11:06;;;;;;;27.35;15.18;;;19.10;73.30;;;;;;9163582;19;20101;-69
2023/09/17 02:14:15;;;;;;;22.80;14.18;;;19.10;76.10;;;;;;9163645;19;20015;-68
2023/09/17 02:17:22;;;;;;;27.42;14.77;;;19.20;80.60;;;;;;9162094;19;20010;-69
2023/09/17 02:20:28;;;;;;;20.52;15.10;;;19.10;70.90;;;;;;9170974;19;20055;-68
2023/09/17 02:23:35;;;;;;;20.50;14.50;;;19.10;70.80;;;;;;9168733;19;20022;-70
2023/09/17 02:26:42;;;;;;;20.02;13.95;;;19.10;71.60;;;;;;9176544;19;20015;-71
2023/09/17 02:29:52;;;;;;;26.00;15.55;;;19.10;72.50;;;;;;9173507;19;20577;-67
2023/09/17 02:32:58;;;;;;;25.10;15.43;;;19.10;73.90;;;;;;9166585;19;20912;-67
2023/09/17 02:36:06;;;;;;;21.38;15.82;;;19.10;74.80;;;;;;9163866;19;20022;-68
2023/09/17 02:39:11;;;;;;;24.13;16.95;;;19.30;77.00;;;;;;9166531;19;20056;-67
2023/09/17 02:42:19;;;;;;;29.02;17.23;;;19.10;70.80;;;;;;9165286;19;20010;-67
2023/09/17 02:45:27;;;;;;;26.88;17.58;;;19.10;70.70;;;;;;9164377;19;20018;-73
2023/09/17 02:48:35;;;;;;;26.58;15.90;;;19.10;70.90;;;;;;9161754;19;20018;-70
2023/09/17 02:51:41;;;;;;;26.05;16.25;;;19.00;72.10;;;;;;9160777;19;20018;-71
2023/09/17 02:54:48;;;;;;;24.27;16.25;;;19.10;74.40;;;;;;9164687;19;20023;-71
2023/09/17 02:57:54;;;;;;;27.67;17.77;;;;;;;;;;9163548;19;20018;-68
2023/09/17 03:01:07;;;;;;;21.92;15.52;;;18.90;69.00;;;;;;9163533;19;20014;-71
2023/09/17 03:04:13;;;;;;;23.23;16.45;;;18.80;69.70;;;;;;9161068;19;20018;-67
2023/09/17 03:07:20;;;;;;;23.35;16.40;;;18.80;69.70;;;;;;9162294;19;20019;-68
2023/09/17 03:10:32;;;;;;;23.33;15.65;;;18.80;69.90;;;;;;9170987;19;20019;-70
2023/09/17 03:13:40;;;;;;;26.20;16.75;;;18.80;70.10;;;;;;9172556;19;20022;-66
2023/09/17 03:16:49;;;;;;;26.13;16.67;;;18.70;70.10;;;;;;9165638;19;20027;-67
2023/09/17 03:19:58;;;;;;;21.75;15.40;;;18.70;70.30;;;;;;9169915;19;20476;-70
2023/09/17 03:23:05;;;;;;;26.80;16.38;;;18.70;70.30;;;;;;9170177;19;20487;-69
2023/09/17 03:26:15;;;;;;;22.05;15.57;;;18.60;70.40;;;;;;9171223;19;20018;-69
2023/09/17 03:29:20;;;;;;;26.25;15.93;;;18.60;70.40;;;;;;9167295;19;20026;-69
2023/09/17 03:32:30;;;;;;;35.75;16.33;;;18.60;70.60;;;;;;9173252;19;20015;-69
2023/09/17 03:35:36;;;;;;;29.42;16.77;;;18.60;70.70;;;;;;9170748;19;20018;-68
2023/09/17 03:38:44;;;;;;;27.20;16.70;;;18.50;70.70;;;;;;9171244;19;20022;-69
2023/09/17 03:41:50;;;;;;;35.75;17.10;;;18.50;70.80;;;;;;9170067;19;20971;-67
2023/09/17 03:44:58;;;;;;;28.17;16.80;;;18.50;70.90;;;;;;9173706;19;20015;-70
2023/09/17 03:48:07;;;;;;;29.00;17.33;;;18.50;71.00;;;;;;9183071;19;20015;-71
2023/09/17 03:51:14;;;;;;;28.30;17.10;;;18.40;71.10;;;;;;9184925;19;20021;-68
2023/09/17 03:54:21;;;;;;;26.77;17.00;;;18.40;71.20;;;;;;9175818;19;20011;-71
2023/09/17 03:57:29;;;;;;;26.95;16.95;;;18.30;71.30;;;;;;9170599;19;20018;-72
2023/09/17 04:00:34;;;;;;;29.65;16.25;;;18.30;71.40;;;;;;9170439;19;20082;-69
2023/09/17 04:03:45;;;;;;;26.75;16.67;;;18.30;71.50;;;;;;9169808;19;20361;-68
2023/09/17 04:06:50;;;;;;;22.60;14.15;;;18.20;71.60;;;;;;9169477;19;20121;-69
2023/09/17 04:09:57;;;;;;;24.20;14.43;;;18.20;71.60;;;;;;9170222;19;20025;-67
2023/09/17 04:13:03;;;;;;;22.58;15.52;;;18.20;71.60;;;;;;9170181;19;20035;-68
2023/09/17 04:16:10;;;;;;;28.15;13.93;;;18.10;71.70;;;;;;9167107;19;20106;-70
2023/09/17 04:19:18;;;;;;;25.63;14.63;;;18.10;71.70;;;;;;9171332;19;20342;-70
2023/09/17 04:22:26;;;;;;;22.73;13.48;;;18.00;71.80;;;;;;9180296;19;20027;-72
2023/09/17 04:25:32;;;;;;;24.85;13.68;;;18.00;71.80;;;;;;9176986;19;20014;-66
2023/09/17 04:28:39;;;;;;;21.92;14.20;;;17.90;71.90;;;;;;9171414;19;20022;-69
2023/09/17 04:31:46;;;;;;;20.38;13.60;;;17.90;72.00;;;;;;9171748;19;20018;-70
2023/09/17 04:34:57;;;;;;;21.58;12.57;;;17.90;72.10;;;;;;9171685;19;20002;-68
2023/09/17 04:38:04;;;;;;;23.67;12.70;;;17.90;72.30;;;;;;9169521;19;20476;-71
2023/09/17 04:41:12;;;;;;;21.60;12.38;;;17.80;72.20;;;;;;9166134;19;20493;-70
2023/09/17 04:44:17;;;;;;;28.83;15.18;;;17.80;72.30;;;;;;9167594;19;20019;-70
2023/09/17 04:47:25;;;;;;;25.75;12.02;;;17.80;72.40;;;;;;9168531;19;20018;-70
2023/09/17 04:50:33;;;;;;;21.42;11.93;;;17.80;72.50;;;;;;9164885;19;20015;-69
2023/09/17 04:53:42;;;;;;;16.15;11.10;;;17.80;72.60;;;;;;9167725;19;20104;-70
2023/09/17 04:56:47;;;;;;;21.67;13.43;;;17.70;72.60;;;;;;9166364;19;20016;-67
2023/09/17 04:59:55;;;;;;;22.20;13.30;;;17.70;72.70;;;;;;9167011;19;20017;-72
2023/09/17 05:03:04;;;;;;;20.98;13.70;;;17.70;72.70;;;;;;9165635;19;20026;-67
2023/09/17 05:06:16;;;;;;;17.15;13.25;;;17.70;72.80;;;;;;9166845;19;20026;-71
2023/09/17 05:09:22;;;;;;;18.92;12.40;;;17.70;72.90;;;;;;9166179;19;20025;-69
2023/09/17 05:12:29;;;;;;;22.88;13.52;;;17.70;72.90;;;;;;9167772;19;20015;-69
2023/09/17 05:15:36;;;;;;;23.15;15.20;;;17.70;72.90;;;;;;9164353;19;20643;-67
2023/09/17 05:18:44;;;;;;;22.88;15.05;;;17.70;73.00;;;;;;9165597;19;20019;-68
2023/09/17 05:21:52;;;;;;;23.63;14.32;;;17.70;73.00;;;;;;9164873;19;20021;-71
2023/09/17 05:24:59;;;;;;;26.08;16.42;;;17.60;73.20;;;;;;9165453;19;20018;-70
2023/09/17 05:28:06;;;;;;;26.85;16.90;;;17.60;73.10;;;;;;9164349;19;20484;-71
2023/09/17 05:31:15;;;;;;;28.65;16.90;;;17.60;73.20;;;;;;9165410;19;20023;-70
2023/09/17 05:34:22;;;;;;;29.85;18.30;;;17.60;73.30;;;;;;9166169;19;20448;-66
2023/09/17 05:37:33;;;;;;;30.80;17.70;;;17.60;73.40;;;;;;9164334;19;20026;-66
2023/09/17 05:40:42;;;;;;;25.40;16.83;;;17.60;73.60;;;;;;9166670;19;20045;-70
2023/09/17 05:43:49;;;;;;;29.92;17.85;;;17.60;76.40;;;;;;9165108;19;20015;-69
2023/09/17 05:46:56;;;;;;;25.83;16.40;;;17.60;73.60;;;;;;9165437;19;20025;-69
2023/09/17 05:50:04;;;;;;;24.77;16.50;;;17.60;73.70;;;;;;9163018;19;20272;-66
2023/09/17 05:53:14;;;;;;;30.63;16.77;;;17.60;73.70;;;;;;9165926;19;20048;-69
2023/09/17 05:56:22;;;;;;;26.45;16.13;;;17.60;73.80;;;;;;9164467;19;20369;-70
2023/09/17 05:59:28;;;;;;;27.90;17.15;;;17.50;73.80;;;;;;9163347;19;20035;-68
2023/09/17 06:02:38;;;;;;;27.48;17.65;;;17.50;73.80;;;;;;9163782;19;20038;-68
2023/09/17 06:05:44;;;;;;;28.70;19.35;;;17.60;73.90;;;;;;9162956;19;20441;-68
2023/09/17 06:08:54;;;;;;;33.78;19.52;;;17.60;74.00;;;;;;9164841;19;20451;-69
2023/09/17 06:12:00;;;;;;;28.10;17.70;;;17.50;74.10;;;;;;9164247;19;20016;-66
2023/09/17 06:15:09;;;;;;;27.80;19.02;;;17.60;74.20;;;;;;9161149;19;20019;-68
2023/09/17 06:18:16;;;;;;;31.40;19.50;;;17.60;75.50;;;;;;9163896;19;20030;-68
2023/09/17 06:21:24;;;;;;;29.55;19.00;;;17.60;74.40;;;;;;9163591;19;20383;-67
2023/09/17 06:24:32;;;;;;;33.13;21.25;;;17.60;74.30;;;;;;9162822;19;20061;-67
2023/09/17 06:27:40;;;;;;;30.60;20.48;;;17.60;74.40;;;;;;9161580;19;20018;-68
2023/09/17 06:30:46;;;;;;;34.08;21.17;;;17.60;74.50;;;;;;9158533;19;20029;-67
2023/09/17 06:33:53;;;;;;;34.72;21.80;;;17.60;74.50;;;;;;9158096;19;20021;-66
2023/09/17 06:36:59;;;;;;;35.60;21.67;;;17.60;74.60;;;;;;9155896;19;20030;-67
2023/09/17 06:40:13;;;;;;;35.50;23.15;;;17.60;74.70;;;;;;9156137;19;20826;-67
2023/09/17 06:43:19;;;;;;;36.25;23.23;;;17.60;74.80;;;;;;9159022;19;20138;-70
2023/09/17 06:46:27;;;;;;;37.08;22.95;;;17.60;74.90;;;;;;9159642;19;20026;-66
2023/09/17 06:49:33;;;;;;;38.38;24.13;;;17.70;75.10;;;;;;9155913;19;20031;-68
2023/09/17 06:52:41;;;;;;;45.55;26.15;;;17.60;74.90;;;;;;9155160;19;20715;-69
2023/09/17 06:55:49;;;;;;;43.15;24.27;;;17.70;75.10;;;;;;9157199;19;20827;-67
2023/09/17 06:58:57;;;;;;;49.30;26.63;;;17.70;75.30;;;;;;9161043;19;20018;-66
2023/09/17 07:02:02;;;;;;;44.38;26.40;;;17.70;75.20;;;;;;9163479;19;20129;-68
2023/09/17 07:05:12;;;;;;;41.28;26.17;;;17.70;75.30;;;;;;9163081;19;20017;-66
2023/09/17 07:08:17;;;;;;;41.92;25.27;;;17.70;75.40;;;;;;9165129;19;20521;-68
2023/09/17 07:11:27;;;;;;;43.03;25.83;;;17.70;75.40;;;;;;9160747;19;20019;-68
2023/09/17 07:14:32;;;;;;;48.13;27.08;;;17.80;75.70;;;;;;9160917;19;20011;-66
2023/09/17 07:17:40;;;;;;;47.45;28.02;;;17.80;75.60;;;;;;9164878;19;20033;-67
2023/09/17 07:20:45;;;;;;;43.53;26.60;;;17.90;77.40;;;;;;9162379;19;20025;-65
2023/09/17 07:23:52;;;;;;;44.85;27.33;;;17.80;75.70;;;;;;9163243;19;20026;-67
2023/09/17 07:27:00;;;;;;;46.65;28.75;;;17.90;75.90;;;;;;9161481;19;20022;-66
2023/09/17 07:30:09;;;;;;;49.95;28.27;;;17.90;76.40;;;;;;9160415;19;20023;-68
2023/09/17 07:33:14;;;;;;;49.40;28.67;;;17.90;76.00;;;;;;9163772;19;20609;-68
2023/09/17 07:36:21;;;;;;;48.33;28.42;;;18.00;77.10;;;;;;9161593;19;20026;-67
2023/09/17 07:39:27;;;;;;;52.55;30.75;;;18.10;76.20;;;;;;9163175;19;20025;-69
2023/09/17 07:42:37;;;;;;;49.58;28.58;;;18.10;76.20;;;;;;9162198;19;20029;-66
2023/09/17 07:45:43;;;;;;;49.97;28.23;;;18.10;76.20;;;;;;9161769;19;20007;-68
2023/09/17 07:48:52;;;;;;;51.63;29.35;;;18.20;76.20;;;;;;9161581;19;20333;-67
2023/09/17 07:51:57;;;;;;;53.45;29.83;;;18.30;76.30;;;;;;9163833;19;20011;-68
2023/09/17 07:55:05;;;;;;;52.58;30.10;;;18.30;76.30;;;;;;9164287;19;20015;-67
2023/09/17 07:58:13;;;;;;;49.63;30.20;;;18.40;77.30;;;;;;9168696;19;20010;-66
2023/09/17 08:01:20;;;;;;;51.92;32.05;;;18.40;77.80;;;;;;9169770;19;20014;-64
2023/09/17 08:04:26;;;;;;;57.35;30.48;;;18.40;76.40;;;;;;9170509;19;20321;-70
2023/09/17 08:07:34;;;;;;;54.05;30.92;;;18.40;76.40;;;;;;9170788;19;20468;-66
2023/09/17 08:10:40;;;;;;;55.50;31.38;;;18.50;76.50;;;;;;9166213;19;20385;-68
2023/09/17 08:13:50;;;;;;;48.83;31.38;;;18.50;76.50;;;;;;9168782;19;20015;-66
2023/09/17 08:16:56;;;;;;;57.72;33.75;;;18.50;76.70;;;;;;9163909;19;20082;-67
2023/09/17 08:20:04;;;;;;;60.28;33.03;;;18.60;76.80;;;;;;9170038;19;20019;-68
2023/09/17 08:23:09;;;;;;;55.38;33.13;;;18.60;76.70;;;;;;9167621;19;20044;-67
2023/09/17 08:26:37;;;;;;;60.53;33.72;;;18.70;77.30;;;;;;9163943;19;20018;-67
2023/09/17 08:29:55;;;;;;;49.90;31.77;;;18.70;76.70;;;;;;9166044;19;20029;-69
2023/09/17 08:33:23;;;;;;;51.20;32.00;;;18.90;76.90;;;;;;9167818;19;20018;-69
2023/09/17 08:36:45;;;;;;;55.08;31.73;;;18.90;76.80;;;;;;9167887;19;20486;-67
2023/09/17 08:39:53;;;;;;;61.40;33.08;;;18.90;78.10;;;;;;9167077;19;20015;-65
2023/09/17 08:42:59;;;;;;;58.03;34.78;;;18.90;76.80;;;;;;9171268;19;20049;-69
2023/09/17 08:46:09;;;;;;;54.80;32.10;;;19.00;76.80;;;;;;9167112;19;20378;-69
2023/09/17 08:49:15;;;;;;;59.10;34.97;;;19.00;77.00;;;;;;9165894;19;20026;-69
2023/09/17 08:52:24;;;;;;;58.83;34.63;;;19.10;78.30;;;;;;9166822;19;20018;-69
2023/09/17 08:55:30;;;;;;;60.65;34.83;;;19.10;77.10;;;;;;9167350;19;20436;-67
2023/09/17 08:58:42;;;;;;;60.47;33.08;;;19.10;77.20;;;;;;9167321;19;20024;-71
2023/09/17 09:01:52;;;;;;;55.92;33.60;;;19.10;77.20;;;;;;9164656;19;20635;-70
2023/09/17 09:05:02;;;;;;;60.22;35.40;;;19.20;77.40;;;;;;9162973;19;20018;-69
2023/09/17 09:08:09;;;;;;;55.35;33.30;;;19.20;77.40;;;;;;9159663;19;20018;-67
2023/09/17 09:11:17;;;;;;;53.75;32.00;;;19.20;77.60;;;;;;9160976;19;20018;-72
2023/09/17 09:14:23;;;;;;;68.63;35.42;;;19.20;77.40;;;;;;9161357;19;20010;-70
2023/09/17 09:17:33;;;;;;;59.17;35.40;;;19.30;77.60;;;;;;9160249;19;20030;-70
2023/09/17 09:20:39;;;;;;;55.67;34.20;;;19.30;77.70;;;;;;9157971;19;20716;-68
2023/09/17 09:23:47;;;;;;;58.67;35.22;;;19.40;77.70;;;;;;9160283;19;20060;-70
2023/09/17 09:26:55;;;;;;;52.05;33.97;;;19.40;77.80;;;;;;9161197;19;20058;-70
2023/09/17 09:30:05;;;;;;;57.67;34.40;;;19.50;77.90;;;;;;9158991;19;20701;-67
2023/09/17 09:33:16;;;;;;;59.55;33.53;;;19.60;77.90;;;;;;9161328;19;20045;-70
2023/09/17 09:36:26;;;;;;;54.88;34.42;;;19.60;77.90;;;;;;9168617;19;20029;-69
2023/09/17 09:39:35;;;;;;;60.47;34.13;;;19.70;77.90;;;;;;9167629;19;20035;-69
2023/09/17 09:42:42;;;;;;;54.35;33.10;;;19.80;78.00;;;;;;9164733;19;20014;-69
2023/09/17 09:45:50;;;;;;;52.38;32.70;;;19.80;77.90;;;;;;9161368;19;20078;-69
2023/09/17 09:49:05;;;;;;;49.40;30.40;;;19.90;77.90;;;;;;9160152;19;20025;-70
2023/09/17 09:52:10;;;;;;;58.67;34.75;;;20.00;78.00;;;;;;9158437;19;20105;-69
2023/09/17 09:55:17;;;;;;;51.53;31.13;;;20.10;77.80;;;;;;9157954;19;20014;-68
2023/09/17 09:58:23;;;;;;;49.97;31.08;;;20.10;77.80;;;;;;9157738;19;20912;-68
2023/09/17 10:01:31;;;;;;;52.58;31.15;;;20.20;77.80;;;;;;9163007;19;20468;-67
2023/09/17 10:04:43;;;;;;;49.58;29.88;;;20.30;77.90;;;;;;9162580;19;20018;-70
2023/09/17 10:07:50;;;;;;;47.90;29.70;;;20.30;77.90;;;;;;9163665;19;20341;-70
2023/09/17 10:10:57;;;;;;;47.45;29.30;;;20.40;77.90;;;;;;9162611;19;20011;-67
2023/09/17 10:14:05;;;;;;;43.85;27.42;;;20.50;77.90;;;;;;9165262;19;20512;-66
2023/09/17 10:17:13;;;;;;;45.88;28.48;;;20.50;77.90;;;;;;9160809;19;20011;-66
2023/09/17 10:20:24;;;;;;;42.65;28.25;;;20.60;77.90;;;;;;9155177;19;20010;-68
2023/09/17 10:23:33;;;;;;;44.00;26.88;;;20.70;77.90;;;;;;9158509;19;20018;-66
2023/09/17 10:26:42;;;;;;;43.47;27.27;;;20.70;77.90;;;;;;9156475;19;20013;-68
2023/09/17 10:29:50;;;;;;;43.08;26.45;;;20.80;77.80;;;;;;9157627;19;20022;-70
2023/09/17 10:32:59;;;;;;;37.85;24.33;;;20.80;77.80;;;;;;9154963;19;20010;-69
2023/09/17 10:36:09;;;;;;;41.65;26.17;;;20.90;77.80;;;;;;9162797;19;20085;-67
2023/09/17 10:39:17;;;;;;;40.10;26.42;;;20.90;77.90;;;;;;9163767;19;20753;-69
2023/09/17 10:42:23;;;;;;;51.08;26.13;;;21.00;77.90;;;;;;9162803;19;20093;-66
2023/09/17 10:45:32;;;;;;;46.33;25.23;;;21.10;82.50;;;;;;9163548;19;20021;-70
2023/09/17 10:48:39;;;;;;;38.35;25.52;;;21.00;77.80;;;;;;9159231;19;20526;-68
2023/09/17 10:51:51;;;;;;;39.78;25.15;;;21.00;77.90;;;;;;9160286;19;20038;-70
2023/09/17 10:54:56;;;;;;;39.25;24.90;;;21.10;78.10;;;;;;9161271;19;20022;-69
2023/09/17 10:58:12;;;;;;;35.40;23.52;;;21.10;78.10;;;;;;9160203;19;20014;-67
2023/09/17 11:01:20;;;;;;;41.33;24.52;;;21.20;78.40;;;;;;9162374;19;20406;-69
2023/09/17 11:04:29;;;;;;;36.72;23.38;;;21.30;78.30;;;;;;9160834;19;20361;-69
2023/09/17 11:07:38;;;;;;;34.22;21.25;;;21.40;78.50;;;;;;9160916;19;20030;-69
2023/09/17 11:10:45;;;;;;;34.47;22.35;;;21.50;78.50;;;;;;9160734;19;20022;-70
2023/09/17 11:13:51;;;;;;;31.95;19.60;;;21.70;78.50;;;;;;9163140;19;20018;-68
2023/09/17 11:17:00;;;;;;;33.28;19.02;;;21.80;78.40;;;;;;9153599;19;20602;-70
2023/09/17 11:20:13;;;;;;;32.95;20.27;;;22.00;78.40;;;;;;9161482;19;20026;-69
2023/09/17 11:23:38;;;;;;;31.98;20.73;;;22.10;78.40;;;;;;9160142;19;20019;-67
2023/09/17 11:26:45;;;;;;;31.30;19.67;;;22.20;78.20;;;;;;9160924;19;20065;-69
2023/09/17 11:29:52;;;;;;;31.38;19.67;;;22.30;78.00;;;;;;9165544;19;20447;-68
2023/09/17 11:32:58;;;;;;;33.92;19.80;;;22.40;77.80;;;;;;9167461;19;20029;-69
2023/09/17 11:36:07;;;;;;;42.30;21.58;;;22.50;77.70;;;;;;9171147;19;20447;-69
2023/09/17 11:39:16;;;;;;;31.73;19.80;;;22.60;77.80;;;;;;9169064;19;20431;-68
2023/09/17 11:42:26;;;;;;;30.38;19.13;;;22.60;77.60;;;;;;9168051;19;20017;-69
2023/09/17 11:45:32;;;;;;;34.75;19.10;;;22.70;77.60;;;;;;9168897;19;20469;-69
2023/09/17 11:48:41;;;;;;;31.40;18.85;;;22.70;77.50;;;;;;9168652;19;20018;-69
2023/09/17 11:51:48;;;;;;;28.05;19.27;;;22.80;77.60;;;;;;9168318;19;20522;-68
2023/09/17 11:55:06;;;;;;;27.80;17.83;;;22.80;77.60;;;;;;9170648;19;20021;-67
2023/09/17 11:58:19;;;;;;;28.85;18.90;;;22.90;78.50;;;;;;9167378;19;20095;-68
2023/09/17 12:01:28;;;;;;;29.35;19.65;;;22.90;77.40;;;;;;9169529;19;20337;-67
2023/09/17 12:04:36;;;;;;;28.40;18.50;;;23.00;77.40;;;;;;9167405;19;20026;-68
2023/09/17 12:07:46;;;;;;;28.75;19.75;;;23.00;77.30;;;;;;9168215;19;20416;-67
2023/09/17 12:11:08;;;;;;;29.85;19.58;;;23.10;77.40;;;;;;9166732;19;20025;-70
2023/09/17 12:14:16;;;;;;;37.85;20.50;;;23.20;77.50;;;;;;9165947;19;20022;-70
2023/09/17 12:17:22;;;;;;;31.67;18.90;;;23.20;77.40;;;;;;9163725;19;20026;-67
2023/09/17 12:20:48;;;;;;;28.88;18.80;;;23.40;77.50;;;;;;9169648;19;20026;-67
2023/09/17 12:24:05;;;;;;;25.58;19.17;;;23.50;77.40;;;;;;9169106;19;20027;-70
2023/09/17 12:27:24;;;;;;;33.30;19.38;;;23.60;77.30;;;;;;9170515;19;20010;-67
2023/09/17 12:30:31;;;;;;;30.95;18.70;;;23.70;77.20;;;;;;9167527;19;20010;-67
2023/09/17 12:33:42;;;;;;;33.90;20.77;;;23.80;77.10;;;;;;9164189;19;20026;-70
2023/09/17 12:36:47;;;;;;;32.35;18.92;;;24.00;77.00;;;;;;9167365;19;20365;-67
2023/09/17 12:39:55;;;;;;;26.75;18.60;;;24.00;76.80;;;;;;9166969;19;20018;-68
2023/09/17 12:43:04;;;;;;;25.55;17.85;;;24.10;76.70;;;;;;9166365;19;20015;-67
2023/09/17 12:46:13;;;;;;;20.73;15.38;;;24.20;77.50;;;;;;9168633;19;20014;-69
2023/09/17 12:49:18;;;;;;;22.48;15.75;;;24.30;76.70;;;;;;9168213;19;20495;-67
2023/09/17 12:52:26;;;;;;;24.15;16.25;;;24.30;76.70;;;;;;9165121;19;20025;-69
2023/09/17 12:55:31;;;;;;;22.00;13.50;;;24.50;76.70;;;;;;9167199;19;20011;-69
2023/09/17 12:58:41;;;;;;;21.85;13.43;;;24.60;76.70;;;;;;9165013;19;20251;-70
2023/09/17 13:01:53;;;;;;;19.40;12.55;;;24.60;76.60;;;;;;9165975;19;20395;-67
2023/09/17 13:05:01;;;;;;;21.52;12.10;;;24.60;76.40;;;;;;9165784;19;20014;-68
2023/09/17 13:08:07;;;;;;;20.90;11.68;;;24.70;76.80;;;;;;9164256;19;20049;-68
2023/09/17 13:11:15;;;;;;;13.25;10.25;;;24.80;76.90;;;;;;9165731;19;20270;-68
2023/09/17 13:14:23;;;;;;;14.73;10.27;;;24.80;77.20;;;;;;9164589;19;20057;-67
2023/09/17 13:17:31;;;;;;;16.00;11.10;;;25.00;77.50;;;;;;9167158;19;20026;-67
2023/09/17 13:20:37;;;;;;;18.08;10.82;;;25.00;78.30;;;;;;9165923;19;20024;-68
2023/09/17 13:23:44;;;;;;;18.20;11.43;;;25.00;79.00;;;;;;9165170;19;20017;-68
2023/09/17 13:26:50;;;;;;;15.15;10.75;;;25.00;79.50;;;;;;9165806;19;20022;-67
2023/09/17 13:30:00;;;;;;;19.27;10.35;;;25.20;81.70;;;;;;9164976;19;20008;-68
2023/09/17 13:33:07;;;;;;;20.10;11.00;;;25.20;75.50;;;;;;9164379;19;20029;-67
2023/09/17 13:36:17;;;;;;;13.43;9.48;;;25.20;77.50;;;;;;9167011;19;20015;-69
2023/09/17 13:39:22;;;;;;;14.07;9.00;;;25.40;80.50;;;;;;9164626;19;20022;-69
2023/09/17 13:42:31;;;;;;;16.52;8.90;;;25.40;75.30;;;;;;9164159;19;20015;-66
2023/09/17 13:45:39;;;;;;;15.32;8.10;;;25.40;75.30;;;;;;9166131;19;20589;-68
2023/09/17 13:48:47;;;;;;;14.88;8.18;;;25.50;78.20;;;;;;9165025;19;20025;-68
2023/09/17 13:51:53;;;;;;;16.83;8.57;;;25.50;74.70;;;;;;9163428;19;20122;-70
2023/09/17 13:55:01;;;;;;;16.40;7.97;;;25.50;74.70;;;;;;9162140;19;20021;-70
2023/09/17 13:58:06;;;;;;;14.38;8.63;;;25.50;75.20;;;;;;9161930;19;20035;-68
2023/09/17 14:01:16;;;;;;;15.02;8.05;;;25.60;78.10;;;;;;9162091;19;20018;-69
2023/09/17 14:04:22;;;;;;;10.52;7.53;;;25.90;81.70;;;;;;9161705;19;20416;-67
2023/09/17 14:07:32;;;;;;;14.45;8.15;;;25.60;75.10;;;;;;9164249;19;20006;-69
2023/09/17 14:10:37;;;;;;;14.48;8.73;;;25.60;76.50;;;;;;9163256;19;20018;-68
2023/09/17 14:13:45;;;;;;;19.50;7.78;;;25.60;76.40;;;;;;9164480;19;20011;-70
2023/09/17 14:16:53;;;;;;;10.27;7.40;;;25.60;76.00;;;;;;9158982;19;20023;-69
2023/09/17 14:20:00;;;;;;;9.93;7.05;;;25.60;76.00;;;;;;9163388;19;20037;-70
2023/09/17 14:23:06;;;;;;;13.50;6.82;;;25.50;75.20;;;;;;9164120;19;20405;-68
2023/09/17 14:26:13;;;;;;;10.23;6.70;;;25.60;76.00;;;;;;9162860;19;20904;-70
2023/09/17 14:29:19;;;;;;;11.27;6.00;;;25.60;77.00;;;;;;9166122;19;20033;-67
2023/09/17 14:32:29;;;;;;;11.48;7.53;;;25.60;78.90;;;;;;9164664;19;20455;-67
2023/09/17 14:35:34;;;;;;;13.88;6.60;;;25.70;81.30;;;;;;9162490;19;20135;-67
2023/09/17 14:38:42;;;;;;;12.45;6.30;;;25.60;77.50;;;;;;9162255;19;20022;-69
2023/09/17 14:41:47;;;;;;;12.10;6.07;;;25.60;75.80;;;;;;9163761;19;20408;-67
2023/09/17 14:44:54;;;;;;;9.77;5.60;;;25.60;74.30;;;;;;9162141;19;20829;-67
2023/09/17 14:48:02;;;;;;;12.40;4.47;;;25.50;75.60;;;;;;9165387;19;20045;-68
2023/09/17 14:51:09;;;;;;;11.30;4.00;;;25.60;76.30;;;;;;9162991;19;20014;-68
2023/09/17 14:54:15;;;;;;;4.35;3.25;;;25.50;82.80;;;;;;9161422;19;20788;-68
2023/09/17 14:57:22;;;;;;;5.82;3.70;;;25.40;73.50;;;;;;9163367;19;20014;-67
2023/09/17 15:00:28;;;;;;;5.90;3.17;;;25.40;73.40;;;;;;9159338;19;20026;-67
2023/09/17 15:03:38;;;;;;;6.30;3.78;;;25.40;73.40;;;;;;9163584;19;20022;-67
2023/09/17 15:06:44;;;;;;;12.02;3.72;;;25.40;73.30;;;;;;9174238;19;20018;-67
2023/09/17 15:09:52;;;;;;;5.40;3.47;;;25.40;73.30;;;;;;9172733;19;20018;-66
2023/09/17 15:12:57;;;;;;;4.85;3.30;;;25.40;73.30;;;;;;9171793;19;20015;-67
2023/09/17 15:16:05;;;;;;;4.63;2.95;;;25.40;73.30;;;;;;9164840;19;20011;-68
2023/09/17 15:19:12;;;;;;;5.00;2.90;;;25.40;73.20;;;;;;9171189;19;20014;-68
2023/09/17 15:22:20;;;;;;;3.92;3.20;;;25.30;73.10;;;;;;9171170;19;20025;-67
2023/09/17 15:25:25;;;;;;;5.38;3.40;;;25.30;73.00;;;;;;9172128;19;20478;-68
2023/09/17 15:28:32;;;;;;;5.35;2.65;;;25.30;72.90;;;;;;9172444;19;20228;-67
2023/09/17 15:31:40;;;;;;;17.58;3.75;;;25.30;72.90;;;;;;9177148;19;20011;-68
2023/09/17 15:34:50;;;;;;;6.07;3.33;;;25.30;72.90;;;;;;9171086;19;20005;-69
2023/09/17 15:37:57;;;;;;;8.13;3.92;;;25.20;72.90;;;;;;9172617;19;20532;-67
2023/09/17 15:41:05;;;;;;;6.38;2.90;;;25.20;72.90;;;;;;9171549;19;20025;-68
2023/09/17 15:44:10;;;;;;;6.80;3.50;;;25.20;72.90;;;;;;9171366;19;20484;-67
2023/09/17 15:47:21;;;;;;;8.25;4.20;;;25.20;72.90;;;;;;9171813;19;20021;-68
2023/09/17 15:50:29;;;;;;;4.45;3.63;;;25.20;73.00;;;;;;9171027;19;20018;-67
2023/09/17 15:53:37;;;;;;;8.32;4.30;;;25.10;72.90;;;;;;9169751;19;20019;-68
2023/09/17 15:56:43;;;;;;;5.68;3.72;;;25.10;73.00;;;;;;9168786;19;20624;-66
2023/09/17 15:59:51;;;;;;;9.48;5.22;;;25.00;73.00;;;;;;9162719;19;20007;-64